Startpagina
METAR-TAF:

METAR-TAF

Vliegvelden :

Puerto Carreño, Colombia

breedte: 06-10N, lengte: 067-30W, hoogte: 55 m

Actueel weer

Dit bericht is 45 minuten geleden gemaakt, om 23:00 UTC
Wind 4 kt uit het zuiden
Temperatuur 28°C
Vochtigheid 79%
Druk 1012 hPa
Zicht 10 km of meer
Weinig wolken op 1700 ft
Gebroken wolken op 7000 ft

METAR: SKPC 052300Z 18004KT 9999 FEW017 BKN070 28/24 A2987

Tijdstip: 18:45 (23:45 UTC)


TAF: ontbreekt

Waarnemingen en weersverwachtingen van meer dan 4000 vliegvelden (METAR en TAF).

De beschikbare stations zijn de gele en rode punten op de kaart.

Ga met uw muis naar het station om de naam te zien.

Klik dan om waarnemingen en weersverwachtingen te zien.

kaart wijzigen: klik op de groene knoppen met een zwart kruis om in te zoomen, op de groene knop met een streepje om uit te zoomen of op de groene pijlen voor aangrenzende kaarten.


METAR-TAF: